Centaurus — CUFE6 — position and weather

sailwx.info

Track history (hours):
 
Tides and Currents Weather Stations Pressure Air Temp Water Temp Dewpoint Dewpoint Depression Visibility Wind Speed Wind Dir Waves Ship Positions

Centaurus

Last reported at 2018-Feb-22 01:01 UTC. Time now 2018-Feb-22 01:17 UTC.
Position N 36°57' W 008°13'.

; draft 3.5 m.

Type: Fishing. MMSI: 263410940.

Date/timePositionNaut miles runAvg speedWind from/ knotsBaromVisibWave heightAir tempDewpointWater temp
2018-Feb-22 01:01N 36°57' W 008°13'2 4.5
2018-Feb-22 00:31N 36°58' W 008°16'510.8
2018-Feb-22 00:00N 37°01' W 008°22'510.6
2018-Feb-21 23:30N 37°04' W 008°27'5 9.6
2018-Feb-21 23:01N 37°07' W 008°32'1 1.9
2018-Feb-21 22:30N 37°08' W 008°32'0 0.0
2018-Feb-21 21:59N 37°08' W 008°32'0 0.0
2018-Feb-21 21:31N 37°08' W 008°32'0 0.0
2018-Feb-21 21:00N 37°08' W 008°32'0 0.0
2018-Feb-21 20:30N 37°08' W 008°32'0 0.0
2018-Feb-21 20:00N 37°08' W 008°32'0 0.0
2018-Feb-21 19:31N 37°08' W 008°32'0 0.0
2018-Feb-21 19:00N 37°08' W 008°32'0 0.0
2018-Feb-21 18:30N 37°08' W 008°32'0 0.0
2018-Feb-21 18:00N 37°08' W 008°32'0 0.0
2018-Feb-21 17:30N 37°08' W 008°32'0 0.0
2018-Feb-21 16:59N 37°08' W 008°32'0 0.0
2018-Feb-21 16:30N 37°08' W 008°32'0 0.0
2018-Feb-21 15:56N 37°08' W 008°32'0 0.0
2018-Feb-21 15:30N 37°08' W 008°32'2 3.2
2018-Feb-21 14:57N 37°06' W 008°32'0 0.9
2018-Feb-21 14:31N 37°06' W 008°31'5 9.1
2018-Feb-21 14:00N 37°01' W 008°30'5 9.1
2018-Feb-21 13:31N 36°57' W 008°28'12 2.8
2018-Feb-21 09:21N 36°54' W 008°14'2 4.5
2018-Feb-21 09:00N 36°55' W 008°12'4 8.7
2018-Feb-21 08:31N 36°51' W 008°15'2 3.6
2018-Feb-21 07:49N 36°51' W 008°12'1 4.1
2018-Feb-21 07:30N 36°51' W 008°10'3 4.4
2018-Feb-21 06:52N 36°52' W 008°07'0 0.2
2018-Feb-21 06:24N 36°52' W 008°07'1 2.0
2018-Feb-21 06:00N 36°52' W 008°08'4 8.9
2018-Feb-21 05:31N 36°55' W 008°11'0 1.0
2018-Feb-21 05:01N 36°55' W 008°11'4 2.6
2018-Feb-21 03:37N 36°55' W 008°06'1 4.3
2018-Feb-21 03:23N 36°55' W 008°07'2 4.2
2018-Feb-21 03:00N 36°55' W 008°09'2 4.2
2018-Feb-21 02:30N 36°57' W 008°11'2 4.2
2018-Feb-21 02:01N 36°58' W 008°14'3 6.1
2018-Feb-21 01:31N 36°59' W 008°17'510.9
2018-Feb-21 01:01N 37°01' W 008°23'510.6
2018-Feb-21 00:31N 37°04' W 008°29'4 8.5
2018-Feb-21 00:00N 37°07' W 008°32'0 1.0
2018-Feb-20 23:30N 37°08' W 008°32'0 0.0
2018-Feb-20 23:00N 37°08' W 008°32'0 0.0
2018-Feb-20 22:30N 37°08' W 008°32'0 0.0
2018-Feb-20 22:00N 37°08' W 008°32'0 0.0
2018-Feb-20 21:30N 37°08' W 008°32'0 0.0
2018-Feb-20 20:59N 37°08' W 008°32'0 0.0
2018-Feb-20 20:29N 37°08' W 008°32'0 0.0
2018-Feb-20 20:00N 37°08' W 008°32'0 0.0
2018-Feb-20 19:30N 37°08' W 008°32'0 0.0
2018-Feb-20 18:57N 37°08' W 008°32'0 0.0
2018-Feb-20 18:30N 37°08' W 008°32'0 0.0
2018-Feb-20 18:00N 37°08' W 008°32'0 0.0
2018-Feb-20 17:30N 37°08' W 008°32'0 0.0
2018-Feb-20 17:00N 37°08' W 008°32'0 0.0
2018-Feb-20 16:29N 37°08' W 008°32'0 0.0
2018-Feb-20 16:00N 37°08' W 008°32'0 0.0
2018-Feb-20 15:29N 37°08' W 008°32'0 0.0
2018-Feb-20 15:00N 37°08' W 008°32'4 7.8
2018-Feb-20 14:30N 37°04' W 008°31'510.6
2018-Feb-20 14:00N 36°59' W 008°30'3 6.0
2018-Feb-20 13:30N 36°56' W 008°30'2 4.0
2018-Feb-20 13:00N 36°54' W 008°29'4 3.4
2018-Feb-20 11:45N 36°50' W 008°30'310.4
2018-Feb-20 11:30N 36°52' W 008°29'3 5.4
2018-Feb-20 11:00N 36°55' W 008°29'2 4.2
2018-Feb-20 10:30N 36°56' W 008°27'7 2.7
2018-Feb-20 07:49N 36°53' W 008°18'1 4.2
2018-Feb-20 07:28N 36°54' W 008°17'2 4.4
2018-Feb-20 06:59N 36°56' W 008°17'1 1.2
2018-Feb-20 06:30N 36°56' W 008°16'0 0.1
2018-Feb-20 06:00N 36°56' W 008°16'3 6.3
2018-Feb-20 05:30N 36°56' W 008°12'2 3.6
2018-Feb-20 05:00N 36°55' W 008°10'2 3.5
2018-Feb-20 04:22N 36°55' W 008°08'1 3.6
2018-Feb-20 03:58N 36°55' W 008°09'3 4.2
2018-Feb-20 03:23N 36°57' W 008°11'2 4.2
2018-Feb-20 03:00N 36°58' W 008°13'3 5.5
2018-Feb-20 02:30N 36°58' W 008°17'510.6
2018-Feb-20 02:00N 37°01' W 008°22'510.4
2018-Feb-20 01:30N 37°04' W 008°28'5 8.9
2018-Feb-20 00:59N 37°07' W 008°32'1 1.2
2018-Feb-20 00:30N 37°08' W 008°32'0 0.0
2018-Feb-20 00:00N 37°08' W 008°32'0 0.0
2018-Feb-19 23:30N 37°08' W 008°32'0 0.0
2018-Feb-19 22:58N 37°08' W 008°32'0 0.0
2018-Feb-19 22:14N 37°08' W 008°32'0 0.0
2018-Feb-19 21:49N 37°08' W 008°32'0 0.0
2018-Feb-19 20:45N 37°08' W 008°32'0 0.0
2018-Feb-19 20:16N 37°08' W 008°32'0 0.0
2018-Feb-19 19:56N 37°08' W 008°32'0 0.0
2018-Feb-19 19:29N 37°08' W 008°32'0 0.0
2018-Feb-19 18:51N 37°08' W 008°32'0 0.0
2018-Feb-19 18:21N 37°08' W 008°32'0 0.0
2018-Feb-19 17:54N 37°08' W 008°32'0 0.0
2018-Feb-19 17:30N 37°08' W 008°32'0 0.0
2018-Feb-19 17:00N 37°08' W 008°32'0 0.0
2018-Feb-19 16:30N 37°08' W 008°32'0 0.0
2018-Feb-19 16:00N 37°08' W 008°32'0 0.0
2018-Feb-19 15:30N 37°08' W 008°32'0 0.0
2018-Feb-19 15:00N 37°08' W 008°32'0 0.0
2018-Feb-19 14:30N 37°08' W 008°32'0 0.0
2018-Feb-19 13:56N 37°08' W 008°32'0 0.0
2018-Feb-19 13:29N 37°08' W 008°32'0 0.2
2018-Feb-19 13:00N 37°08' W 008°32'5 9.1
2018-Feb-19 12:30N 37°04' W 008°29'510.5
2018-Feb-19 12:00N 36°60' W 008°25'510.6
2018-Feb-19 11:30N 36°56' W 008°20'11 2.4
2018-Feb-19 06:47N 36°52' W 008°07'4 5.7
2018-Feb-19 06:04N 36°54' W 008°11'110.5
2018-Feb-19 06:01N 36°55' W 008°12'510.5
2018-Feb-19 05:30N 36°58' W 008°17'510.6
2018-Feb-19 05:01N 37°01' W 008°22'510.4
2018-Feb-19 04:30N 37°04' W 008°28'5 9.1
2018-Feb-19 04:00N 37°07' W 008°32'1 1.1
2018-Feb-19 03:29N 37°08' W 008°32'0 0.0
2018-Feb-19 03:00N 37°08' W 008°32'0 0.0
2018-Feb-19 02:31N 37°08' W 008°32'0 0.0
2018-Feb-19 02:00N 37°08' W 008°32'0 0.0
2018-Feb-19 01:31N 37°08' W 008°32'0 0.0
2018-Feb-19 01:01N 37°08' W 008°32'0 0.0
2018-Feb-19 00:30N 37°08' W 008°32'0 0.0
2018-Feb-19 00:01N 37°08' W 008°32'0 0.0
2018-Feb-18 23:24N 37°08' W 008°32'0 0.0
2018-Feb-18 23:00N 37°08' W 008°32'0 0.0
2018-Feb-18 22:30N 37°08' W 008°32'0 0.0
2018-Feb-18 22:01N 37°08' W 008°32'0 0.0
2018-Feb-18 21:11N 37°08' W 008°32'1 0.7
2018-Feb-18 20:29N 37°07' W 008°32'6 9.1
2018-Feb-18 19:47N 37°02' W 008°27'410.3
2018-Feb-18 19:22N 36°59' W 008°23'2 5.1
2018-Feb-18 19:00N 36°58' W 008°21'4 1.1
2018-Feb-18 15:01N 36°54' W 008°18'010.2
2018-Feb-18 14:59N 36°55' W 008°18'1 2.4
2018-Feb-18 14:30N 36°56' W 008°17'3 4.1
2018-Feb-18 13:52N 36°54' W 008°20'6 1.6
2018-Feb-18 09:56N 36°59' W 008°25'510.5
2018-Feb-18 09:30N 37°02' W 008°28'510.3
2018-Feb-18 09:00N 37°07' W 008°32'1 2.3
2018-Feb-18 08:28N 37°08' W 008°32'0 0.0
2018-Feb-18 07:58N 37°08' W 008°32'0 0.0
2018-Feb-18 07:31N 37°08' W 008°32'0 0.0
2018-Feb-18 07:00N 37°08' W 008°32'0 0.0
2018-Feb-18 06:30N 37°08' W 008°32'0 0.0
2018-Feb-18 06:00N 37°08' W 008°32'0 0.0
2018-Feb-18 05:30N 37°08' W 008°32'0 0.0
2018-Feb-18 05:00N 37°08' W 008°32'0 0.0
2018-Feb-18 04:30N 37°08' W 008°32'0 0.0
2018-Feb-18 04:00N 37°08' W 008°32'0 0.0
2018-Feb-18 03:30N 37°08' W 008°32'0 0.0
2018-Feb-18 03:00N 37°08' W 008°32'0 0.0
2018-Feb-18 02:30N 37°08' W 008°32'0 0.0
2018-Feb-18 02:01N 37°08' W 008°32'0 0.0
2018-Feb-18 01:30N 37°08' W 008°32'0 0.0
2018-Feb-18 01:01N 37°08' W 008°32'0 0.0
2018-Feb-18 00:30N 37°08' W 008°32'0 0.0
2018-Feb-18 00:00N 37°08' W 008°32'0 0.0
2018-Feb-17 23:30N 37°08' W 008°32'0 0.0
2018-Feb-17 23:01N 37°08' W 008°32'0 0.0
2018-Feb-17 22:30N 37°08' W 008°32'0 0.0
2018-Feb-17 22:00N 37°08' W 008°32'0 0.0
2018-Feb-17 21:30N 37°08' W 008°32'0 0.0
2018-Feb-17 20:59N 37°08' W 008°32'0 0.0
2018-Feb-17 20:30N 37°08' W 008°32'0 0.0
2018-Feb-17 19:57N 37°08' W 008°32'1 3.2
2018-Feb-17 19:30N 37°07' W 008°32'4 7.8
2018-Feb-17 19:00N 37°03' W 008°33'4 7.8
2018-Feb-17 18:30N 36°59' W 008°34'6 0.5
2018-Feb-17 06:47N 36°55' W 008°40'0 0.3
2018-Feb-17 06:27N 36°55' W 008°40'4 8.3
2018-Feb-17 05:58N 36°59' W 008°38'510.5
2018-Feb-17 05:30N 37°03' W 008°34'5 9.7
2018-Feb-17 04:58N 37°08' W 008°32'0 0.5
2018-Feb-17 04:28N 37°08' W 008°32'0 0.0
2018-Feb-17 03:59N 37°08' W 008°32'0 0.0
2018-Feb-17 03:30N 37°08' W 008°32'0 0.0
2018-Feb-17 02:58N 37°08' W 008°32'0 0.0
2018-Feb-17 02:26N 37°08' W 008°32'0 0.0
2018-Feb-17 01:59N 37°08' W 008°32'0 0.0
2018-Feb-17 01:30N 37°08' W 008°32'0 0.0
2018-Feb-17 00:57N 37°08' W 008°32'0 0.0
2018-Feb-17 00:30N 37°08' W 008°32'0 0.0
2018-Feb-17 00:00N 37°08' W 008°32'0 0.0
2018-Feb-16 23:27N 37°08' W 008°32'0 0.0
2018-Feb-16 22:59N 37°08' W 008°32'0 0.0
2018-Feb-16 22:30N 37°08' W 008°32'0 0.0
2018-Feb-16 22:00N 37°08' W 008°32'0 0.0
2018-Feb-16 21:26N 37°08' W 008°32'0 0.0
2018-Feb-16 20:57N 37°08' W 008°32'0 0.0
2018-Feb-16 20:30N 37°08' W 008°32'0 0.0
2018-Feb-16 20:00N 37°08' W 008°32'0 0.0
2018-Feb-16 19:30N 37°08' W 008°32'0 0.0
2018-Feb-16 18:59N 37°08' W 008°32'0 0.0
2018-Feb-16 18:30N 37°08' W 008°32'0 0.0
2018-Feb-16 17:58N 37°08' W 008°32'0 0.0
2018-Feb-16 17:30N 37°08' W 008°32'0 0.0
2018-Feb-16 16:59N 37°08' W 008°32'0 0.0
2018-Feb-16 16:30N 37°08' W 008°32'0 0.0
2018-Feb-16 15:59N 37°08' W 008°32'0 0.0
2018-Feb-16 15:30N 37°08' W 008°32'0 0.0
2018-Feb-16 15:00N 37°08' W 008°32'0 0.0
2018-Feb-16 14:19N 37°08' W 008°32'0 0.0
2018-Feb-16 13:59N 37°08' W 008°32'0 0.0
2018-Feb-16 13:30N 37°08' W 008°32'0 0.0
2018-Feb-16 13:00N 37°08' W 008°32'2 3.6
2018-Feb-16 12:30N 37°06' W 008°31'510.6
2018-Feb-16 12:00N 37°01' W 008°29'11 2.3
2018-Feb-16 07:11N 36°55' W 008°17'1 4.7
2018-Feb-16 07:00N 36°56' W 008°16'0 0.2
2018-Feb-16 06:29N 36°56' W 008°16'0 0.3
2018-Feb-16 05:59N 36°56' W 008°16'5 9.1
2018-Feb-16 05:29N 36°57' W 008°22'5 8.8
2018-Feb-16 04:55N 36°57' W 008°28'2 5.1
2018-Feb-16 04:30N 36°57' W 008°31'2 3.9
2018-Feb-16 04:00N 36°59' W 008°33'2 4.6
2018-Feb-16 03:30N 36°60' W 008°35'2 3.4
2018-Feb-16 03:00N 36°60' W 008°33'2 4.7
2018-Feb-16 02:29N 37°02' W 008°32'510.4
2018-Feb-16 01:59N 37°07' W 008°32'1 1.6
2018-Feb-16 01:30N 37°08' W 008°32'0 0.0
2018-Feb-16 00:58N 37°08' W 008°32'0 0.0
2018-Feb-16 00:30N 37°08' W 008°32'0 0.0
2018-Feb-16 00:00N 37°08' W 008°32'0 0.0
2018-Feb-15 23:30N 37°08' W 008°32'0 0.0
2018-Feb-15 23:00N 37°08' W 008°32'0 0.0
2018-Feb-15 22:30N 37°08' W 008°32'0 0.0
2018-Feb-15 22:00N 37°08' W 008°32'0 0.0
2018-Feb-15 21:30N 37°08' W 008°32'0 0.0
2018-Feb-15 21:00N 37°08' W 008°32'0 0.0
2018-Feb-15 20:30N 37°08' W 008°32'0 0.0
2018-Feb-15 20:00N 37°08' W 008°32'0 0.0
2018-Feb-15 19:30N 37°08' W 008°32'0 0.0
2018-Feb-15 19:00N 37°08' W 008°32'0 0.0
2018-Feb-15 18:30N 37°08' W 008°32'0 0.0
2018-Feb-15 18:00N 37°08' W 008°32'0 0.0
2018-Feb-15 17:30N 37°08' W 008°32'0 0.0
2018-Feb-15 17:00N 37°08' W 008°32'0 0.0
2018-Feb-15 16:30N 37°08' W 008°32'0 0.0
2018-Feb-15 16:00N 37°08' W 008°32'0 0.0
2018-Feb-15 15:30N 37°08' W 008°32'0 0.0
2018-Feb-15 14:58N 37°08' W 008°32'0 0.0
2018-Feb-15 14:29N 37°08' W 008°32'3 6.5
2018-Feb-15 14:00N 37°05' W 008°32'510.6
2018-Feb-15 13:30N 37°00' W 008°35'510.3
2018-Feb-15 13:00N 36°55' W 008°38'6 0.8
2018-Feb-15 05:43N 36°55' W 008°31'0 2.0
2018-Feb-15 05:29N 36°55' W 008°31'4 1.8
2018-Feb-15 03:24N 36°55' W 008°36'1 3.6
2018-Feb-15 03:00N 36°56' W 008°34'2 2.7
2018-Feb-15 02:06N 36°57' W 008°31'311.4
2018-Feb-15 01:50N 36°60' W 008°31'410.4
2018-Feb-15 01:29N 37°03' W 008°32'5 9.1
2018-Feb-15 00:59N 37°08' W 008°32'0 0.3
2018-Feb-15 00:30N 37°08' W 008°32'0 0.0
2018-Feb-15 00:00N 37°08' W 008°32'0 0.0
2018-Feb-14 23:29N 37°08' W 008°32'0 0.0
2018-Feb-14 22:59N 37°08' W 008°32'0 0.0
2018-Feb-14 22:30N 37°08' W 008°32'0 0.0
2018-Feb-14 22:00N 37°08' W 008°32'0 0.0
2018-Feb-14 21:29N 37°08' W 008°32'0 0.0
2018-Feb-14 21:00N 37°08' W 008°32'0 0.0
2018-Feb-14 20:30N 37°08' W 008°32'0 0.0
2018-Feb-14 20:00N 37°08' W 008°32'0 0.0
2018-Feb-14 19:30N 37°08' W 008°32'0 0.0
2018-Feb-14 19:00N 37°08' W 008°32'0 0.0
2018-Feb-14 18:30N 37°08' W 008°32'0 0.0
2018-Feb-14 18:00N 37°08' W 008°32'0 0.0
2018-Feb-14 17:30N 37°08' W 008°32'0 0.0
2018-Feb-14 17:00N 37°08' W 008°32'0 0.0
2018-Feb-14 16:30N 37°08' W 008°32'0 0.0
2018-Feb-14 16:00N 37°08' W 008°32'0 0.0
2018-Feb-14 15:29N 37°08' W 008°32'0 0.0
2018-Feb-14 14:58N 37°08' W 008°32'0 0.0
2018-Feb-14 14:28N 37°08' W 008°32'0 0.0
2018-Feb-14 14:00N 37°08' W 008°32'0 0.0
2018-Feb-14 13:30N 37°08' W 008°32'0 0.0
2018-Feb-14 13:00N 37°08' W 008°32'0 0.0
2018-Feb-14 12:29N 37°08' W 008°32'0 0.6
2018-Feb-14 12:00N 37°08' W 008°32'5 9.2
2018-Feb-14 11:27N 37°03' W 008°29'510.7
2018-Feb-14 11:00N 36°59' W 008°25'9 3.4
2018-Feb-14 08:16N 36°51' W 008°29'1 1.4
2018-Feb-14 07:54N 36°50' W 008°30'2 4.0
2018-Feb-14 07:26N 36°52' W 008°30'2 3.9
2018-Feb-14 06:59N 36°54' W 008°29'0 0.8
2018-Feb-14 06:30N 36°54' W 008°29'0 0.6
2018-Feb-14 05:58N 36°54' W 008°29'0 0.3
2018-Feb-14 05:30N 36°53' W 008°29'0 0.6
2018-Feb-14 05:00N 36°53' W 008°29'3 6.2
2018-Feb-14 04:29N 36°56' W 008°32'3 6.5
2018-Feb-14 04:00N 36°58' W 008°35'2 3.4
2018-Feb-14 03:30N 36°56' W 008°35'2 3.5
2018-Feb-14 03:00N 36°55' W 008°33'2 3.6
2018-Feb-14 02:28N 36°54' W 008°31'0 0.0
2018-Feb-14 01:58N 36°54' W 008°31'510.5
2018-Feb-14 01:29N 36°56' W 008°25'4 8.9
2018-Feb-14 01:00N 36°58' W 008°20'3 3.9
2018-Feb-14 00:10N 36°57' W 008°17'1 4.2
2018-Feb-14 00:00N 36°56' W 008°16'2 4.1
2018-Feb-13 23:30N 36°56' W 008°14'1 2.6
2018-Feb-13 22:59N 36°56' W 008°15'511.1
2018-Feb-13 22:30N 36°57' W 008°22'510.6
2018-Feb-13 22:00N 36°58' W 008°28'4 7.3
2018-Feb-13 21:30N 36°59' W 008°32'2 4.1
2018-Feb-13 21:00N 37°00' W 008°35'3 2.9
2018-Feb-13 20:04N 36°58' W 008°32'0 4.5
2018-Feb-13 19:58N 36°58' W 008°32'2 3.6
2018-Feb-13 19:29N 36°57' W 008°31'3 5.3
2018-Feb-13 18:59N 36°54' W 008°32'2 4.1
2018-Feb-13 18:30N 36°56' W 008°31'2 4.2
2018-Feb-13 18:00N 36°57' W 008°29'2 4.0
2018-Feb-13 17:30N 36°58' W 008°27'2 4.2
2018-Feb-13 17:00N 36°59' W 008°25'8 0.9
2018-Feb-13 07:40N 36°54' W 008°16'1 4.3
2018-Feb-13 07:28N 36°54' W 008°15'2 4.3
2018-Feb-13 06:53N 36°55' W 008°12'0 0.1
2018-Feb-13 06:29N 36°55' W 008°12'1 1.0
2018-Feb-13 05:58N 36°55' W 008°12'510.9
2018-Feb-13 05:30N 36°58' W 008°18'510.9
2018-Feb-13 05:00N 37°01' W 008°23'510.6
2018-Feb-13 04:30N 37°04' W 008°28'4 8.7
2018-Feb-13 04:00N 37°08' W 008°32'0 0.1
2018-Feb-13 03:30N 37°08' W 008°32'0 0.0
2018-Feb-13 03:00N 37°08' W 008°32'0 0.0
2018-Feb-13 02:30N 37°08' W 008°32'0 0.0
2018-Feb-13 02:00N 37°08' W 008°32'0 0.0
2018-Feb-13 01:31N 37°08' W 008°32'0 0.0
2018-Feb-13 01:00N 37°08' W 008°32'0 0.0
2018-Feb-13 00:29N 37°08' W 008°32'0 0.0
2018-Feb-13 00:00N 37°08' W 008°32'0 0.0
2018-Feb-12 23:30N 37°08' W 008°32'0 0.0
2018-Feb-12 23:00N 37°08' W 008°32'0 0.0
2018-Feb-12 22:30N 37°08' W 008°32'0 0.0
2018-Feb-12 22:00N 37°08' W 008°32'0 0.0
2018-Feb-12 21:30N 37°08' W 008°32'0 0.0
2018-Feb-12 21:00N 37°08' W 008°32'0 0.0
2018-Feb-12 20:30N 37°08' W 008°32'0 0.0
2018-Feb-12 20:00N 37°08' W 008°32'0 0.0
2018-Feb-12 19:30N 37°08' W 008°32'0 0.0
2018-Feb-12 19:00N 37°08' W 008°32'0 0.0
2018-Feb-12 18:30N 37°08' W 008°32'0 0.0
2018-Feb-12 18:00N 37°08' W 008°32'0 0.0
2018-Feb-12 17:30N 37°08' W 008°32'0 0.0
2018-Feb-12 17:00N 37°08' W 008°32'0 0.0
2018-Feb-12 16:30N 37°08' W 008°32'0 0.0
2018-Feb-12 16:00N 37°08' W 008°32'0 0.0
2018-Feb-12 15:30N 37°08' W 008°32'0 0.0
2018-Feb-12 15:00N 37°08' W 008°32'0 0.0
2018-Feb-12 14:30N 37°08' W 008°32'0 0.0
2018-Feb-12 14:00N 37°08' W 008°32'0 0.0
2018-Feb-12 13:30N 37°08' W 008°32'0 0.0
2018-Feb-12 13:00N 37°08' W 008°32'0 0.0
2018-Feb-12 12:30N 37°08' W 008°32'0 0.0
2018-Feb-12 12:00N 37°08' W 008°32'0 0.0
2018-Feb-12 11:30N 37°08' W 008°32'0 0.0
2018-Feb-12 11:00N 37°08' W 008°32'0 0.0
2018-Feb-12 10:30N 37°08' W 008°32'0 0.0
2018-Feb-12 10:00N 37°08' W 008°32'0 0.0
2018-Feb-12 09:30N 37°08' W 008°32'0 0.0
2018-Feb-12 08:59N 37°08' W 008°32'0 0.0
2018-Feb-12 08:30N 37°08' W 008°32'0 0.0
2018-Feb-12 08:00N 37°08' W 008°32'0 0.0
2018-Feb-12 07:30N 37°08' W 008°32'0 0.0
2018-Feb-12 07:00N 37°08' W 008°32'0 0.0
2018-Feb-12 06:30N 37°08' W 008°32'0 0.0
2018-Feb-12 06:00N 37°08' W 008°32'0 0.0
2018-Feb-12 05:30N 37°08' W 008°32'0 0.0
2018-Feb-12 05:00N 37°08' W 008°32'0 0.0
2018-Feb-12 04:30N 37°08' W 008°32'0 0.0
2018-Feb-12 04:00N 37°08' W 008°32'0 0.0
2018-Feb-12 03:30N 37°08' W 008°32'0 0.0
2018-Feb-12 03:00N 37°08' W 008°32'0 0.0
2018-Feb-12 02:30N 37°08' W 008°32'0 0.0
2018-Feb-12 02:00N 37°08' W 008°32'0 0.0
2018-Feb-12 01:31N 37°08' W 008°32'  
Track history (hours):
 
Tides and Currents Weather Stations Pressure Air Temp Water Temp Dewpoint Dewpoint Depression Visibility Wind Speed Wind Dir Waves Ship Positions

Centaurus

Last reported at 2018-Feb-22 01:01 UTC. Time now 2018-Feb-22 01:17 UTC.
Position N 36°57' W 008°13'.

; draft 3.5 m.

Type: Fishing. MMSI: 263410940.

Date/timePositionNaut miles runAvg speedWind from/ knotsBaromVisibWave heightAir tempDewpointWater temp
2018-Feb-22 01:01N 36°57' W 008°13'2 4.5
2018-Feb-22 00:31N 36°58' W 008°16'510.8
2018-Feb-22 00:00N 37°01' W 008°22'510.6
2018-Feb-21 23:30N 37°04' W 008°27'5 9.6
2018-Feb-21 23:01N 37°07' W 008°32'1 1.9
2018-Feb-21 22:30N 37°08' W 008°32'0 0.0
2018-Feb-21 21:59N 37°08' W 008°32'0 0.0
2018-Feb-21 21:31N 37°08' W 008°32'0 0.0
2018-Feb-21 21:00N 37°08' W 008°32'0 0.0
2018-Feb-21 20:30N 37°08' W 008°32'0 0.0
2018-Feb-21 20:00N 37°08' W 008°32'0 0.0
2018-Feb-21 19:31N 37°08' W 008°32'0 0.0
2018-Feb-21 19:00N 37°08' W 008°32'0 0.0
2018-Feb-21 18:30N 37°08' W 008°32'0 0.0
2018-Feb-21 18:00N 37°08' W 008°32'0 0.0
2018-Feb-21 17:30N 37°08' W 008°32'0 0.0
2018-Feb-21 16:59N 37°08' W 008°32'0 0.0
2018-Feb-21 16:30N 37°08' W 008°32'0 0.0
2018-Feb-21 15:56N 37°08' W 008°32'0 0.0
2018-Feb-21 15:30N 37°08' W 008°32'2 3.2
2018-Feb-21 14:57N 37°06' W 008°32'0 0.9
2018-Feb-21 14:31N 37°06' W 008°31'5 9.1
2018-Feb-21 14:00N 37°01' W 008°30'5 9.1
2018-Feb-21 13:31N 36°57' W 008°28'12 2.8
2018-Feb-21 09:21N 36°54' W 008°14'2 4.5
2018-Feb-21 09:00N 36°55' W 008°12'4 8.7
2018-Feb-21 08:31N 36°51' W 008°15'2 3.6
2018-Feb-21 07:49N 36°51' W 008°12'1 4.1
2018-Feb-21 07:30N 36°51' W 008°10'3 4.4
2018-Feb-21 06:52N 36°52' W 008°07'0 0.2
2018-Feb-21 06:24N 36°52' W 008°07'1 2.0
2018-Feb-21 06:00N 36°52' W 008°08'4 8.9
2018-Feb-21 05:31N 36°55' W 008°11'0 1.0
2018-Feb-21 05:01N 36°55' W 008°11'4 2.6
2018-Feb-21 03:37N 36°55' W 008°06'1 4.3
2018-Feb-21 03:23N 36°55' W 008°07'2 4.2
2018-Feb-21 03:00N 36°55' W 008°09'2 4.2
2018-Feb-21 02:30N 36°57' W 008°11'2 4.2
2018-Feb-21 02:01N 36°58' W 008°14'3 6.1
2018-Feb-21 01:31N 36°59' W 008°17'510.9
2018-Feb-21 01:01N 37°01' W 008°23'510.6
2018-Feb-21 00:31N 37°04' W 008°29'4 8.5
2018-Feb-21 00:00N 37°07' W 008°32'0 1.0
2018-Feb-20 23:30N 37°08' W 008°32'0 0.0
2018-Feb-20 23:00N 37°08' W 008°32'0 0.0
2018-Feb-20 22:30N 37°08' W 008°32'0 0.0
2018-Feb-20 22:00N 37°08' W 008°32'0 0.0
2018-Feb-20 21:30N 37°08' W 008°32'0 0.0
2018-Feb-20 20:59N 37°08' W 008°32'0 0.0
2018-Feb-20 20:29N 37°08' W 008°32'0 0.0
2018-Feb-20 20:00N 37°08' W 008°32'0 0.0
2018-Feb-20 19:30N 37°08' W 008°32'0 0.0
2018-Feb-20 18:57N 37°08' W 008°32'0 0.0
2018-Feb-20 18:30N 37°08' W 008°32'0 0.0
2018-Feb-20 18:00N 37°08' W 008°32'0 0.0
2018-Feb-20 17:30N 37°08' W 008°32'0 0.0
2018-Feb-20 17:00N 37°08' W 008°32'0 0.0
2018-Feb-20 16:29N 37°08' W 008°32'0 0.0
2018-Feb-20 16:00N 37°08' W 008°32'0 0.0
2018-Feb-20 15:29N 37°08' W 008°32'0 0.0
2018-Feb-20 15:00N 37°08' W 008°32'4 7.8
2018-Feb-20 14:30N 37°04' W 008°31'510.6
2018-Feb-20 14:00N 36°59' W 008°30'3 6.0
2018-Feb-20 13:30N 36°56' W 008°30'2 4.0
2018-Feb-20 13:00N 36°54' W 008°29'4 3.4
2018-Feb-20 11:45N 36°50' W 008°30'310.4
2018-Feb-20 11:30N 36°52' W 008°29'3 5.4
2018-Feb-20 11:00N 36°55' W 008°29'2 4.2
2018-Feb-20 10:30N 36°56' W 008°27'7 2.7
2018-Feb-20 07:49N 36°53' W 008°18'1 4.2
2018-Feb-20 07:28N 36°54' W 008°17'2 4.4
2018-Feb-20 06:59N 36°56' W 008°17'1 1.2
2018-Feb-20 06:30N 36°56' W 008°16'0 0.1
2018-Feb-20 06:00N 36°56' W 008°16'3 6.3
2018-Feb-20 05:30N 36°56' W 008°12'2 3.6
2018-Feb-20 05:00N 36°55' W 008°10'2 3.5
2018-Feb-20 04:22N 36°55' W 008°08'1 3.6
2018-Feb-20 03:58N 36°55' W 008°09'3 4.2
2018-Feb-20 03:23N 36°57' W 008°11'2 4.2
2018-Feb-20 03:00N 36°58' W 008°13'3 5.5
2018-Feb-20 02:30N 36°58' W 008°17'510.6
2018-Feb-20 02:00N 37°01' W 008°22'510.4
2018-Feb-20 01:30N 37°04' W 008°28'5 8.9
2018-Feb-20 00:59N 37°07' W 008°32'1 1.2
2018-Feb-20 00:30N 37°08' W 008°32'0 0.0
2018-Feb-20 00:00N 37°08' W 008°32'0 0.0
2018-Feb-19 23:30N 37°08' W 008°32'0 0.0
2018-Feb-19 22:58N 37°08' W 008°32'0 0.0
2018-Feb-19 22:14N 37°08' W 008°32'0 0.0
2018-Feb-19 21:49N 37°08' W 008°32'0 0.0
2018-Feb-19 20:45N 37°08' W 008°32'0 0.0
2018-Feb-19 20:16N 37°08' W 008°32'0 0.0
2018-Feb-19 19:56N 37°08' W 008°32'0 0.0
2018-Feb-19 19:29N 37°08' W 008°32'0 0.0
2018-Feb-19 18:51N 37°08' W 008°32'0 0.0
2018-Feb-19 18:21N 37°08' W 008°32'0 0.0
2018-Feb-19 17:54N 37°08' W 008°32'0 0.0
2018-Feb-19 17:30N 37°08' W 008°32'0 0.0
2018-Feb-19 17:00N 37°08' W 008°32'0 0.0
2018-Feb-19 16:30N 37°08' W 008°32'0 0.0
2018-Feb-19 16:00N 37°08' W 008°32'0 0.0
2018-Feb-19 15:30N 37°08' W 008°32'0 0.0
2018-Feb-19 15:00N 37°08' W 008°32'0 0.0
2018-Feb-19 14:30N 37°08' W 008°32'0 0.0
2018-Feb-19 13:56N 37°08' W 008°32'0 0.0
2018-Feb-19 13:29N 37°08' W 008°32'0 0.2
2018-Feb-19 13:00N 37°08' W 008°32'5 9.1
2018-Feb-19 12:30N 37°04' W 008°29'510.5
2018-Feb-19 12:00N 36°60' W 008°25'510.6
2018-Feb-19 11:30N 36°56' W 008°20'11 2.4
2018-Feb-19 06:47N 36°52' W 008°07'4 5.7
2018-Feb-19 06:04N 36°54' W 008°11'110.5
2018-Feb-19 06:01N 36°55' W 008°12'510.5
2018-Feb-19 05:30N 36°58' W 008°17'510.6
2018-Feb-19 05:01N 37°01' W 008°22'510.4
2018-Feb-19 04:30N 37°04' W 008°28'5 9.1
2018-Feb-19 04:00N 37°07' W 008°32'1 1.1
2018-Feb-19 03:29N 37°08' W 008°32'0 0.0
2018-Feb-19 03:00N 37°08' W 008°32'0 0.0
2018-Feb-19 02:31N 37°08' W 008°32'0 0.0
2018-Feb-19 02:00N 37°08' W 008°32'0 0.0
2018-Feb-19 01:31N 37°08' W 008°32'0 0.0
2018-Feb-19 01:01N 37°08' W 008°32'0 0.0
2018-Feb-19 00:30N 37°08' W 008°32'0 0.0
2018-Feb-19 00:01N 37°08' W 008°32'0 0.0
2018-Feb-18 23:24N 37°08' W 008°32'0 0.0
2018-Feb-18 23:00N 37°08' W 008°32'0 0.0
2018-Feb-18 22:30N 37°08' W 008°32'0 0.0
2018-Feb-18 22:01N 37°08' W 008°32'0 0.0
2018-Feb-18 21:11N 37°08' W 008°32'1 0.7
2018-Feb-18 20:29N 37°07' W 008°32'6 9.1
2018-Feb-18 19:47N 37°02' W 008°27'410.3
2018-Feb-18 19:22N 36°59' W 008°23'2 5.1
2018-Feb-18 19:00N 36°58' W 008°21'4 1.1
2018-Feb-18 15:01N 36°54' W 008°18'010.2
2018-Feb-18 14:59N 36°55' W 008°18'1 2.4
2018-Feb-18 14:30N 36°56' W 008°17'3 4.1
2018-Feb-18 13:52N 36°54' W 008°20'6 1.6
2018-Feb-18 09:56N 36°59' W 008°25'510.5
2018-Feb-18 09:30N 37°02' W 008°28'510.3
2018-Feb-18 09:00N 37°07' W 008°32'1 2.3
2018-Feb-18 08:28N 37°08' W 008°32'0 0.0
2018-Feb-18 07:58N 37°08' W 008°32'0 0.0
2018-Feb-18 07:31N 37°08' W 008°32'0 0.0
2018-Feb-18 07:00N 37°08' W 008°32'0 0.0
2018-Feb-18 06:30N 37°08' W 008°32'0 0.0
2018-Feb-18 06:00N 37°08' W 008°32'0 0.0
2018-Feb-18 05:30N 37°08' W 008°32'0 0.0
2018-Feb-18 05:00N 37°08' W 008°32'0 0.0
2018-Feb-18 04:30N 37°08' W 008°32'0 0.0
2018-Feb-18 04:00N 37°08' W 008°32'0 0.0
2018-Feb-18 03:30N 37°08' W 008°32'0 0.0
2018-Feb-18 03:00N 37°08' W 008°32'0 0.0
2018-Feb-18 02:30N 37°08' W 008°32'0 0.0
2018-Feb-18 02:01N 37°08' W 008°32'0 0.0
2018-Feb-18 01:30N 37°08' W 008°32'0 0.0
2018-Feb-18 01:01N 37°08' W 008°32'0 0.0
2018-Feb-18 00:30N 37°08' W 008°32'0 0.0
2018-Feb-18 00:00N 37°08' W 008°32'0 0.0
2018-Feb-17 23:30N 37°08' W 008°32'0 0.0
2018-Feb-17 23:01N 37°08' W 008°32'0 0.0
2018-Feb-17 22:30N 37°08' W 008°32'0 0.0
2018-Feb-17 22:00N 37°08' W 008°32'0 0.0
2018-Feb-17 21:30N 37°08' W 008°32'0 0.0
2018-Feb-17 20:59N 37°08' W 008°32'0 0.0
2018-Feb-17 20:30N 37°08' W 008°32'0 0.0
2018-Feb-17 19:57N 37°08' W 008°32'1 3.2
2018-Feb-17 19:30N 37°07' W 008°32'4 7.8
2018-Feb-17 19:00N 37°03' W 008°33'4 7.8
2018-Feb-17 18:30N 36°59' W 008°34'6 0.5
2018-Feb-17 06:47N 36°55' W 008°40'0 0.3
2018-Feb-17 06:27N 36°55' W 008°40'4 8.3
2018-Feb-17 05:58N 36°59' W 008°38'510.5
2018-Feb-17 05:30N 37°03' W 008°34'5 9.7
2018-Feb-17 04:58N 37°08' W 008°32'0 0.5
2018-Feb-17 04:28N 37°08' W 008°32'0 0.0
2018-Feb-17 03:59N 37°08' W 008°32'0 0.0
2018-Feb-17 03:30N 37°08' W 008°32'0 0.0
2018-Feb-17 02:58N 37°08' W 008°32'0 0.0
2018-Feb-17 02:26N 37°08' W 008°32'0 0.0
2018-Feb-17 01:59N 37°08' W 008°32'0 0.0
2018-Feb-17 01:30N 37°08' W 008°32'0 0.0
2018-Feb-17 00:57N 37°08' W 008°32'0 0.0
2018-Feb-17 00:30N 37°08' W 008°32'0 0.0
2018-Feb-17 00:00N 37°08' W 008°32'0 0.0
2018-Feb-16 23:27N 37°08' W 008°32'0 0.0
2018-Feb-16 22:59N 37°08' W 008°32'0 0.0
2018-Feb-16 22:30N 37°08' W 008°32'0 0.0
2018-Feb-16 22:00N 37°08' W 008°32'0 0.0
2018-Feb-16 21:26N 37°08' W 008°32'0 0.0
2018-Feb-16 20:57N 37°08' W 008°32'0 0.0
2018-Feb-16 20:30N 37°08' W 008°32'0 0.0
2018-Feb-16 20:00N 37°08' W 008°32'0 0.0
2018-Feb-16 19:30N 37°08' W 008°32'0 0.0
2018-Feb-16 18:59N 37°08' W 008°32'0 0.0
2018-Feb-16 18:30N 37°08' W 008°32'0 0.0
2018-Feb-16 17:58N 37°08' W 008°32'0 0.0
2018-Feb-16 17:30N 37°08' W 008°32'0 0.0
2018-Feb-16 16:59N 37°08' W 008°32'0 0.0
2018-Feb-16 16:30N 37°08' W 008°32'0 0.0
2018-Feb-16 15:59N 37°08' W 008°32'0 0.0
2018-Feb-16 15:30N 37°08' W 008°32'0 0.0
2018-Feb-16 15:00N 37°08' W 008°32'0 0.0
2018-Feb-16 14:19N 37°08' W 008°32'0 0.0
2018-Feb-16 13:59N 37°08' W 008°32'0 0.0
2018-Feb-16 13:30N 37°08' W 008°32'0 0.0
2018-Feb-16 13:00N 37°08' W 008°32'2 3.6
2018-Feb-16 12:30N 37°06' W 008°31'510.6
2018-Feb-16 12:00N 37°01' W 008°29'11 2.3
2018-Feb-16 07:11N 36°55' W 008°17'1 4.7
2018-Feb-16 07:00N 36°56' W 008°16'0 0.2
2018-Feb-16 06:29N 36°56' W 008°16'0 0.3
2018-Feb-16 05:59N 36°56' W 008°16'5 9.1
2018-Feb-16 05:29N 36°57' W 008°22'5 8.8
2018-Feb-16 04:55N 36°57' W 008°28'2 5.1
2018-Feb-16 04:30N 36°57' W 008°31'2 3.9
2018-Feb-16 04:00N 36°59' W 008°33'2 4.6
2018-Feb-16 03:30N 36°60' W 008°35'2 3.4
2018-Feb-16 03:00N 36°60' W 008°33'2 4.7
2018-Feb-16 02:29N 37°02' W 008°32'510.4
2018-Feb-16 01:59N 37°07' W 008°32'1 1.6
2018-Feb-16 01:30N 37°08' W 008°32'0 0.0
2018-Feb-16 00:58N 37°08' W 008°32'0 0.0
2018-Feb-16 00:30N 37°08' W 008°32'0 0.0
2018-Feb-16 00:00N 37°08' W 008°32'0 0.0
2018-Feb-15 23:30N 37°08' W 008°32'0 0.0
2018-Feb-15 23:00N 37°08' W 008°32'0 0.0
2018-Feb-15 22:30N 37°08' W 008°32'0 0.0
2018-Feb-15 22:00N 37°08' W 008°32'0 0.0
2018-Feb-15 21:30N 37°08' W 008°32'0 0.0
2018-Feb-15 21:00N 37°08' W 008°32'0 0.0
2018-Feb-15 20:30N 37°08' W 008°32'0 0.0
2018-Feb-15 20:00N 37°08' W 008°32'0 0.0
2018-Feb-15 19:30N 37°08' W 008°32'0 0.0
2018-Feb-15 19:00N 37°08' W 008°32'0 0.0
2018-Feb-15 18:30N 37°08' W 008°32'0 0.0
2018-Feb-15 18:00N 37°08' W 008°32'0 0.0
2018-Feb-15 17:30N 37°08' W 008°32'0 0.0
2018-Feb-15 17:00N 37°08' W 008°32'0 0.0
2018-Feb-15 16:30N 37°08' W 008°32'0 0.0
2018-Feb-15 16:00N 37°08' W 008°32'0 0.0
2018-Feb-15 15:30N 37°08' W 008°32'0 0.0
2018-Feb-15 14:58N 37°08' W 008°32'0 0.0
2018-Feb-15 14:29N 37°08' W 008°32'3 6.5
2018-Feb-15 14:00N 37°05' W 008°32'510.6
2018-Feb-15 13:30N 37°00' W 008°35'510.3
2018-Feb-15 13:00N 36°55' W 008°38'6 0.8
2018-Feb-15 05:43N 36°55' W 008°31'0 2.0
2018-Feb-15 05:29N 36°55' W 008°31'4 1.8
2018-Feb-15 03:24N 36°55' W 008°36'1 3.6
2018-Feb-15 03:00N 36°56' W 008°34'2 2.7
2018-Feb-15 02:06N 36°57' W 008°31'311.4
2018-Feb-15 01:50N 36°60' W 008°31'410.4
2018-Feb-15 01:29N 37°03' W 008°32'5 9.1
2018-Feb-15 00:59N 37°08' W 008°32'0 0.3
2018-Feb-15 00:30N 37°08' W 008°32'0 0.0
2018-Feb-15 00:00N 37°08' W 008°32'0 0.0
2018-Feb-14 23:29N 37°08' W 008°32'0 0.0
2018-Feb-14 22:59N 37°08' W 008°32'0 0.0
2018-Feb-14 22:30N 37°08' W 008°32'0 0.0
2018-Feb-14 22:00N 37°08' W 008°32'0 0.0
2018-Feb-14 21:29N 37°08' W 008°32'0 0.0
2018-Feb-14 21:00N 37°08' W 008°32'0 0.0
2018-Feb-14 20:30N 37°08' W 008°32'0 0.0
2018-Feb-14 20:00N 37°08' W 008°32'0 0.0
2018-Feb-14 19:30N 37°08' W 008°32'0 0.0
2018-Feb-14 19:00N 37°08' W 008°32'0 0.0
2018-Feb-14 18:30N 37°08' W 008°32'0 0.0
2018-Feb-14 18:00N 37°08' W 008°32'0 0.0
2018-Feb-14 17:30N 37°08' W 008°32'0 0.0
2018-Feb-14 17:00N 37°08' W 008°32'0 0.0
2018-Feb-14 16:30N 37°08' W 008°32'0 0.0
2018-Feb-14 16:00N 37°08' W 008°32'0 0.0
2018-Feb-14 15:29N 37°08' W 008°32'0 0.0
2018-Feb-14 14:58N 37°08' W 008°32'0 0.0
2018-Feb-14 14:28N 37°08' W 008°32'0 0.0
2018-Feb-14 14:00N 37°08' W 008°32'0 0.0
2018-Feb-14 13:30N 37°08' W 008°32'0 0.0
2018-Feb-14 13:00N 37°08' W 008°32'0 0.0
2018-Feb-14 12:29N 37°08' W 008°32'0 0.6
2018-Feb-14 12:00N 37°08' W 008°32'5 9.2
2018-Feb-14 11:27N 37°03' W 008°29'510.7
2018-Feb-14 11:00N 36°59' W 008°25'9 3.4
2018-Feb-14 08:16N 36°51' W 008°29'1 1.4
2018-Feb-14 07:54N 36°50' W 008°30'2 4.0
2018-Feb-14 07:26N 36°52' W 008°30'2 3.9
2018-Feb-14 06:59N 36°54' W 008°29'0 0.8
2018-Feb-14 06:30N 36°54' W 008°29'0 0.6
2018-Feb-14 05:58N 36°54' W 008°29'0 0.3
2018-Feb-14 05:30N 36°53' W 008°29'0 0.6
2018-Feb-14 05:00N 36°53' W 008°29'3 6.2
2018-Feb-14 04:29N 36°56' W 008°32'3 6.5
2018-Feb-14 04:00N 36°58' W 008°35'2 3.4
2018-Feb-14 03:30N 36°56' W 008°35'2 3.5
2018-Feb-14 03:00N 36°55' W 008°33'2 3.6
2018-Feb-14 02:28N 36°54' W 008°31'0 0.0
2018-Feb-14 01:58N 36°54' W 008°31'510.5
2018-Feb-14 01:29N 36°56' W 008°25'4 8.9
2018-Feb-14 01:00N 36°58' W 008°20'3 3.9
2018-Feb-14 00:10N 36°57' W 008°17'1 4.2
2018-Feb-14 00:00N 36°56' W 008°16'2 4.1
2018-Feb-13 23:30N 36°56' W 008°14'1 2.6
2018-Feb-13 22:59N 36°56' W 008°15'511.1
2018-Feb-13 22:30N 36°57' W 008°22'510.6
2018-Feb-13 22:00N 36°58' W 008°28'4 7.3
2018-Feb-13 21:30N 36°59' W 008°32'2 4.1
2018-Feb-13 21:00N 37°00' W 008°35'3 2.9
2018-Feb-13 20:04N 36°58' W 008°32'0 4.5
2018-Feb-13 19:58N 36°58' W 008°32'2 3.6
2018-Feb-13 19:29N 36°57' W 008°31'3 5.3
2018-Feb-13 18:59N 36°54' W 008°32'2 4.1
2018-Feb-13 18:30N 36°56' W 008°31'2 4.2
2018-Feb-13 18:00N 36°57' W 008°29'2 4.0
2018-Feb-13 17:30N 36°58' W 008°27'2 4.2
2018-Feb-13 17:00N 36°59' W 008°25'8 0.9
2018-Feb-13 07:40N 36°54' W 008°16'1 4.3
2018-Feb-13 07:28N 36°54' W 008°15'2 4.3
2018-Feb-13 06:53N 36°55' W 008°12'0 0.1
2018-Feb-13 06:29N 36°55' W 008°12'1 1.0
2018-Feb-13 05:58N 36°55' W 008°12'510.9
2018-Feb-13 05:30N 36°58' W 008°18'510.9
2018-Feb-13 05:00N 37°01' W 008°23'510.6
2018-Feb-13 04:30N 37°04' W 008°28'4 8.7
2018-Feb-13 04:00N 37°08' W 008°32'0 0.1
2018-Feb-13 03:30N 37°08' W 008°32'0 0.0
2018-Feb-13 03:00N 37°08' W 008°32'0 0.0
2018-Feb-13 02:30N 37°08' W 008°32'0 0.0
2018-Feb-13 02:00N 37°08' W 008°32'0 0.0
2018-Feb-13 01:31N 37°08' W 008°32'0 0.0
2018-Feb-13 01:00N 37°08' W 008°32'0 0.0
2018-Feb-13 00:29N 37°08' W 008°32'0 0.0
2018-Feb-13 00:00N 37°08' W 008°32'0 0.0
2018-Feb-12 23:30N 37°08' W 008°32'0 0.0
2018-Feb-12 23:00N 37°08' W 008°32'0 0.0
2018-Feb-12 22:30N 37°08' W 008°32'0 0.0
2018-Feb-12 22:00N 37°08' W 008°32'0 0.0
2018-Feb-12 21:30N 37°08' W 008°32'0 0.0
2018-Feb-12 21:00N 37°08' W 008°32'0 0.0
2018-Feb-12 20:30N 37°08' W 008°32'0 0.0
2018-Feb-12 20:00N 37°08' W 008°32'0 0.0
2018-Feb-12 19:30N 37°08' W 008°32'0 0.0
2018-Feb-12 19:00N 37°08' W 008°32'0 0.0
2018-Feb-12 18:30N 37°08' W 008°32'0 0.0
2018-Feb-12 18:00N 37°08' W 008°32'0 0.0
2018-Feb-12 17:30N 37°08' W 008°32'0 0.0
2018-Feb-12 17:00N 37°08' W 008°32'0 0.0
2018-Feb-12 16:30N 37°08' W 008°32'0 0.0
2018-Feb-12 16:00N 37°08' W 008°32'0 0.0
2018-Feb-12 15:30N 37°08' W 008°32'0 0.0
2018-Feb-12 15:00N 37°08' W 008°32'0 0.0
2018-Feb-12 14:30N 37°08' W 008°32'0 0.0
2018-Feb-12 14:00N 37°08' W 008°32'0 0.0
2018-Feb-12 13:30N 37°08' W 008°32'0 0.0
2018-Feb-12 13:00N 37°08' W 008°32'0 0.0
2018-Feb-12 12:30N 37°08' W 008°32'0 0.0
2018-Feb-12 12:00N 37°08' W 008°32'0 0.0
2018-Feb-12 11:30N 37°08' W 008°32'0 0.0
2018-Feb-12 11:00N 37°08' W 008°32'0 0.0
2018-Feb-12 10:30N 37°08' W 008°32'0 0.0
2018-Feb-12 10:00N 37°08' W 008°32'0 0.0
2018-Feb-12 09:30N 37°08' W 008°32'0 0.0
2018-Feb-12 08:59N 37°08' W 008°32'0 0.0
2018-Feb-12 08:30N 37°08' W 008°32'0 0.0
2018-Feb-12 08:00N 37°08' W 008°32'0 0.0
2018-Feb-12 07:30N 37°08' W 008°32'0 0.0
2018-Feb-12 07:00N 37°08' W 008°32'0 0.0
2018-Feb-12 06:30N 37°08' W 008°32'0 0.0
2018-Feb-12 06:00N 37°08' W 008°32'0 0.0
2018-Feb-12 05:30N 37°08' W 008°32'0 0.0
2018-Feb-12 05:00N 37°08' W 008°32'0 0.0
2018-Feb-12 04:30N 37°08' W 008°32'0 0.0
2018-Feb-12 04:00N 37°08' W 008°32'0 0.0
2018-Feb-12 03:30N 37°08' W 008°32'0 0.0
2018-Feb-12 03:00N 37°08' W 008°32'0 0.0
2018-Feb-12 02:30N 37°08' W 008°32'0 0.0
2018-Feb-12 02:00N 37°08' W 008°32'0 0.0
2018-Feb-12 01:31N 37°08' W 008°32'  

Dump ship's entire track history